sensor_id;sensor_type;location;lat;lon;timestamp;P1;durP1;ratioP1;P2;durP2;ratioP2
5646;SDS011;2845;48.626;9.362;2023-05-07T00:02:12;6.80;;;2.78;;
5646;SDS011;2845;48.626;9.362;2023-05-07T00:04:46;4.57;;;2.40;;
5646;SDS011;2845;48.626;9.362;2023-05-07T00:07:21;4.80;;;1.75;;
5646;SDS011;2845;48.626;9.362;2023-05-07T00:09:55;7.72;;;3.25;;
5646;SDS011;2845;48.626;9.362;2023-05-07T00:12:30;9.63;;;3.78;;
5646;SDS011;2845;48.626;9.362;2023-05-07T00:15:06;6.03;;;2.75;;
5646;SDS011;2845;48.626;9.362;2023-05-07T00:17:42;5.50;;;2.45;;
5646;SDS011;2845;48.626;9.362;2023-05-07T00:20:16;4.75;;;2.28;;
5646;SDS011;2845;48.626;9.362;2023-05-07T00:22:51;3.95;;;1.90;;
5646;SDS011;2845;48.626;9.362;2023-05-07T00:25:25;2.10;;;1.17;;
5646;SDS011;2845;48.626;9.362;2023-05-07T00:28:00;5.05;;;1.67;;
5646;SDS011;2845;48.626;9.362;2023-05-07T00:30:35;2.17;;;1.40;;
5646;SDS011;2845;48.626;9.362;2023-05-07T00:33:09;4.30;;;2.08;;
5646;SDS011;2845;48.626;9.362;2023-05-07T00:35:44;5.72;;;2.03;;
5646;SDS011;2845;48.626;9.362;2023-05-07T00:38:18;4.43;;;1.95;;
5646;SDS011;2845;48.626;9.362;2023-05-07T00:40:52;3.72;;;1.88;;
5646;SDS011;2845;48.626;9.362;2023-05-07T00:43:28;2.47;;;1.63;;
5646;SDS011;2845;48.626;9.362;2023-05-07T00:46:02;3.72;;;1.73;;
5646;SDS011;2845;48.626;9.362;2023-05-07T00:48:37;2.75;;;1.42;;
5646;SDS011;2845;48.626;9.362;2023-05-07T00:51:11;2.67;;;1.52;;
5646;SDS011;2845;48.626;9.362;2023-05-07T00:53:46;3.05;;;1.48;;
5646;SDS011;2845;48.626;9.362;2023-05-07T00:56:21;3.17;;;1.52;;
5646;SDS011;2845;48.626;9.362;2023-05-07T00:58:56;3.78;;;1.75;;
5646;SDS011;2845;48.626;9.362;2023-05-07T01:01:31;3.42;;;1.80;;
5646;SDS011;2845;48.626;9.362;2023-05-07T01:04:05;3.47;;;1.65;;
5646;SDS011;2845;48.626;9.362;2023-05-07T01:06:40;3.05;;;1.30;;
5646;SDS011;2845;48.626;9.362;2023-05-07T01:09:17;4.32;;;1.60;;
5646;SDS011;2845;48.626;9.362;2023-05-07T01:11:54;3.95;;;1.63;;
5646;SDS011;2845;48.626;9.362;2023-05-07T01:14:31;3.67;;;1.48;;
5646;SDS011;2845;48.626;9.362;2023-05-07T01:17:06;2.83;;;1.60;;
5646;SDS011;2845;48.626;9.362;2023-05-07T01:19:40;2.90;;;1.83;;
5646;SDS011;2845;48.626;9.362;2023-05-07T01:22:16;2.78;;;1.30;;
5646;SDS011;2845;48.626;9.362;2023-05-07T01:25:04;3.58;;;1.85;;
5646;SDS011;2845;48.626;9.362;2023-05-07T01:27:40;4.40;;;1.67;;
5646;SDS011;2845;48.626;9.362;2023-05-07T01:30:14;3.63;;;1.67;;
5646;SDS011;2845;48.626;9.362;2023-05-07T01:32:52;3.50;;;1.83;;
5646;SDS011;2845;48.626;9.362;2023-05-07T01:35:34;3.53;;;1.73;;
5646;SDS011;2845;48.626;9.362;2023-05-07T01:38:13;2.63;;;1.55;;
5646;SDS011;2845;48.626;9.362;2023-05-07T01:40:48;3.00;;;1.50;;
5646;SDS011;2845;48.626;9.362;2023-05-07T01:43:22;2.65;;;1.88;;
5646;SDS011;2845;48.626;9.362;2023-05-07T01:45:56;3.08;;;1.60;;
5646;SDS011;2845;48.626;9.362;2023-05-07T01:48:32;2.38;;;1.38;;
5646;SDS011;2845;48.626;9.362;2023-05-07T01:51:07;3.28;;;1.65;;
5646;SDS011;2845;48.626;9.362;2023-05-07T01:53:43;2.80;;;1.42;;
5646;SDS011;2845;48.626;9.362;2023-05-07T01:56:20;2.80;;;1.50;;
5646;SDS011;2845;48.626;9.362;2023-05-07T01:58:54;5.60;;;2.00;;
5646;SDS011;2845;48.626;9.362;2023-05-07T02:01:28;3.78;;;1.67;;
5646;SDS011;2845;48.626;9.362;2023-05-07T02:04:03;2.88;;;1.48;;
5646;SDS011;2845;48.626;9.362;2023-05-07T02:06:37;3.15;;;1.67;;
5646;SDS011;2845;48.626;9.362;2023-05-07T02:09:13;2.35;;;1.50;;
5646;SDS011;2845;48.626;9.362;2023-05-07T02:11:50;2.92;;;1.90;;
5646;SDS011;2845;48.626;9.362;2023-05-07T02:14:24;3.20;;;1.73;;
5646;SDS011;2845;48.626;9.362;2023-05-07T02:16:58;2.95;;;1.35;;
5646;SDS011;2845;48.626;9.362;2023-05-07T02:19:32;2.70;;;1.55;;
5646;SDS011;2845;48.626;9.362;2023-05-07T02:22:06;2.75;;;1.40;;
5646;SDS011;2845;48.626;9.362;2023-05-07T02:24:42;2.97;;;1.52;;
5646;SDS011;2845;48.626;9.362;2023-05-07T02:27:16;3.10;;;1.27;;
5646;SDS011;2845;48.626;9.362;2023-05-07T02:29:52;6.35;;;1.70;;
5646;SDS011;2845;48.626;9.362;2023-05-07T02:32:26;4.00;;;1.60;;
5646;SDS011;2845;48.626;9.362;2023-05-07T02:35:00;2.50;;;1.65;;
5646;SDS011;2845;48.626;9.362;2023-05-07T02:37:34;3.17;;;1.80;;
5646;SDS011;2845;48.626;9.362;2023-05-07T02:40:10;2.30;;;1.30;;
5646;SDS011;2845;48.626;9.362;2023-05-07T02:42:45;1.65;;;1.05;;
5646;SDS011;2845;48.626;9.362;2023-05-07T02:45:20;3.83;;;1.85;;
5646;SDS011;2845;48.626;9.362;2023-05-07T02:47:54;1.98;;;1.10;;
5646;SDS011;2845;48.626;9.362;2023-05-07T02:50:28;3.50;;;1.35;;
5646;SDS011;2845;48.626;9.362;2023-05-07T02:53:02;3.20;;;1.33;;
5646;SDS011;2845;48.626;9.362;2023-05-07T02:55:40;3.45;;;1.30;;
5646;SDS011;2845;48.626;9.362;2023-05-07T02:58:14;2.42;;;1.23;;
5646;SDS011;2845;48.626;9.362;2023-05-07T03:00:48;2.17;;;1.17;;
5646;SDS011;2845;48.626;9.362;2023-05-07T03:03:23;1.55;;;1.10;;
5646;SDS011;2845;48.626;9.362;2023-05-07T03:05:57;2.38;;;1.17;;
5646;SDS011;2845;48.626;9.362;2023-05-07T03:08:31;2.50;;;1.40;;
5646;SDS011;2845;48.626;9.362;2023-05-07T03:11:07;5.07;;;1.23;;
5646;SDS011;2845;48.626;9.362;2023-05-07T03:13:41;2.33;;;1.08;;
5646;SDS011;2845;48.626;9.362;2023-05-07T03:16:17;3.28;;;1.25;;
5646;SDS011;2845;48.626;9.362;2023-05-07T03:18:52;3.03;;;1.20;;
5646;SDS011;2845;48.626;9.362;2023-05-07T03:21:26;2.45;;;1.10;;
5646;SDS011;2845;48.626;9.362;2023-05-07T03:24:01;2.85;;;1.50;;
5646;SDS011;2845;48.626;9.362;2023-05-07T03:26:36;3.22;;;1.30;;
5646;SDS011;2845;48.626;9.362;2023-05-07T03:29:10;2.58;;;1.17;;
5646;SDS011;2845;48.626;9.362;2023-05-07T03:31:44;4.03;;;1.27;;
5646;SDS011;2845;48.626;9.362;2023-05-07T03:34:19;2.88;;;1.20;;
5646;SDS011;2845;48.626;9.362;2023-05-07T03:36:55;4.97;;;1.38;;
5646;SDS011;2845;48.626;9.362;2023-05-07T03:39:29;3.03;;;1.67;;
5646;SDS011;2845;48.626;9.362;2023-05-07T03:42:05;1.58;;;1.08;;
5646;SDS011;2845;48.626;9.362;2023-05-07T03:44:40;2.20;;;1.10;;
5646;SDS011;2845;48.626;9.362;2023-05-07T03:47:14;3.60;;;1.45;;
5646;SDS011;2845;48.626;9.362;2023-05-07T03:49:48;3.03;;;1.40;;
5646;SDS011;2845;48.626;9.362;2023-05-07T03:52:24;2.55;;;1.13;;
5646;SDS011;2845;48.626;9.362;2023-05-07T03:54:58;2.70;;;1.50;;
5646;SDS011;2845;48.626;9.362;2023-05-07T03:57:34;2.22;;;1.08;;
5646;SDS011;2845;48.626;9.362;2023-05-07T04:00:08;3.25;;;1.40;;
5646;SDS011;2845;48.626;9.362;2023-05-07T04:02:44;2.95;;;1.45;;
5646;SDS011;2845;48.626;9.362;2023-05-07T04:05:18;3.75;;;1.70;;
5646;SDS011;2845;48.626;9.362;2023-05-07T04:07:52;3.05;;;1.55;;
5646;SDS011;2845;48.626;9.362;2023-05-07T04:10:26;4.18;;;2.10;;
5646;SDS011;2845;48.626;9.362;2023-05-07T04:13:03;3.35;;;1.88;;
5646;SDS011;2845;48.626;9.362;2023-05-07T04:15:38;3.75;;;1.58;;
5646;SDS011;2845;48.626;9.362;2023-05-07T04:18:12;4.30;;;1.50;;
5646;SDS011;2845;48.626;9.362;2023-05-07T04:20:46;4.03;;;1.60;;
5646;SDS011;2845;48.626;9.362;2023-05-07T04:23:21;1.95;;;1.30;;
5646;SDS011;2845;48.626;9.362;2023-05-07T04:25:57;3.90;;;1.02;;
5646;SDS011;2845;48.626;9.362;2023-05-07T04:28:35;2.38;;;1.23;;
5646;SDS011;2845;48.626;9.362;2023-05-07T04:31:09;3.08;;;1.83;;
5646;SDS011;2845;48.626;9.362;2023-05-07T04:33:43;3.53;;;1.30;;
5646;SDS011;2845;48.626;9.362;2023-05-07T04:36:18;2.45;;;1.20;;
5646;SDS011;2845;48.626;9.362;2023-05-07T04:38:52;2.13;;;1.20;;
5646;SDS011;2845;48.626;9.362;2023-05-07T04:41:26;3.88;;;1.50;;
5646;SDS011;2845;48.626;9.362;2023-05-07T04:44:02;2.40;;;1.05;;
5646;SDS011;2845;48.626;9.362;2023-05-07T04:46:38;2.90;;;1.33;;
5646;SDS011;2845;48.626;9.362;2023-05-07T04:49:12;1.65;;;1.20;;
5646;SDS011;2845;48.626;9.362;2023-05-07T04:51:47;2.28;;;1.02;;
5646;SDS011;2845;48.626;9.362;2023-05-07T04:54:21;2.97;;;1.20;;
5646;SDS011;2845;48.626;9.362;2023-05-07T04:56:56;2.15;;;1.00;;
5646;SDS011;2845;48.626;9.362;2023-05-07T04:59:31;3.50;;;1.65;;
5646;SDS011;2845;48.626;9.362;2023-05-07T05:02:05;2.90;;;1.30;;
5646;SDS011;2845;48.626;9.362;2023-05-07T05:04:41;3.63;;;1.27;;
5646;SDS011;2845;48.626;9.362;2023-05-07T05:07:15;3.80;;;1.15;;
5646;SDS011;2845;48.626;9.362;2023-05-07T05:09:49;2.05;;;1.33;;
5646;SDS011;2845;48.626;9.362;2023-05-07T05:12:27;2.65;;;1.40;;
5646;SDS011;2845;48.626;9.362;2023-05-07T05:15:03;2.35;;;1.50;;
5646;SDS011;2845;48.626;9.362;2023-05-07T05:17:38;2.75;;;1.20;;
5646;SDS011;2845;48.626;9.362;2023-05-07T05:20:13;2.75;;;1.20;;
5646;SDS011;2845;48.626;9.362;2023-05-07T05:22:47;2.78;;;1.17;;
5646;SDS011;2845;48.626;9.362;2023-05-07T05:25:21;2.38;;;1.05;;
5646;SDS011;2845;48.626;9.362;2023-05-07T05:27:56;2.63;;;1.38;;
5646;SDS011;2845;48.626;9.362;2023-05-07T05:30:32;2.47;;;1.13;;
5646;SDS011;2845;48.626;9.362;2023-05-07T05:33:06;3.42;;;1.30;;
5646;SDS011;2845;48.626;9.362;2023-05-07T05:35:41;1.90;;;1.13;;
5646;SDS011;2845;48.626;9.362;2023-05-07T05:38:15;2.10;;;1.00;;
5646;SDS011;2845;48.626;9.362;2023-05-07T05:40:49;1.75;;;1.00;;
5646;SDS011;2845;48.626;9.362;2023-05-07T05:43:26;1.95;;;1.00;;
5646;SDS011;2845;48.626;9.362;2023-05-07T05:46:02;3.28;;;1.52;;
5646;SDS011;2845;48.626;9.362;2023-05-07T05:48:36;1.80;;;1.17;;
5646;SDS011;2845;48.626;9.362;2023-05-07T05:51:10;2.08;;;1.25;;
5646;SDS011;2845;48.626;9.362;2023-05-07T05:53:44;3.15;;;1.55;;
5646;SDS011;2845;48.626;9.362;2023-05-07T05:56:19;2.83;;;1.10;;
5646;SDS011;2845;48.626;9.362;2023-05-07T05:58:54;2.88;;;1.40;;
5646;SDS011;2845;48.626;9.362;2023-05-07T06:01:29;2.80;;;1.80;;
5646;SDS011;2845;48.626;9.362;2023-05-07T06:04:03;2.75;;;1.40;;
5646;SDS011;2845;48.626;9.362;2023-05-07T06:06:38;4.07;;;1.70;;
5646;SDS011;2845;48.626;9.362;2023-05-07T06:09:12;3.10;;;1.60;;
5646;SDS011;2845;48.626;9.362;2023-05-07T06:11:46;3.08;;;1.40;;
5646;SDS011;2845;48.626;9.362;2023-05-07T06:14:20;4.18;;;1.50;;
5646;SDS011;2845;48.626;9.362;2023-05-07T06:16:56;2.83;;;1.35;;
5646;SDS011;2845;48.626;9.362;2023-05-07T06:19:31;2.40;;;1.60;;
5646;SDS011;2845;48.626;9.362;2023-05-07T06:22:05;3.33;;;1.38;;
5646;SDS011;2845;48.626;9.362;2023-05-07T06:24:39;2.65;;;1.40;;
5646;SDS011;2845;48.626;9.362;2023-05-07T06:27:13;2.28;;;1.08;;
5646;SDS011;2845;48.626;9.362;2023-05-07T06:29:48;1.70;;;1.00;;
5646;SDS011;2845;48.626;9.362;2023-05-07T06:32:23;2.53;;;1.45;;
5646;SDS011;2845;48.626;9.362;2023-05-07T06:34:58;3.17;;;1.33;;
5646;SDS011;2845;48.626;9.362;2023-05-07T06:37:32;1.95;;;1.25;;
5646;SDS011;2845;48.626;9.362;2023-05-07T06:40:07;2.75;;;1.58;;
5646;SDS011;2845;48.626;9.362;2023-05-07T06:42:42;2.72;;;1.60;;
5646;SDS011;2845;48.626;9.362;2023-05-07T06:45:17;3.25;;;1.52;;
5646;SDS011;2845;48.626;9.362;2023-05-07T06:47:52;2.85;;;1.42;;
5646;SDS011;2845;48.626;9.362;2023-05-07T06:50:27;3.55;;;1.55;;
5646;SDS011;2845;48.626;9.362;2023-05-07T06:53:01;2.83;;;1.27;;
5646;SDS011;2845;48.626;9.362;2023-05-07T06:55:35;1.85;;;1.17;;
5646;SDS011;2845;48.626;9.362;2023-05-07T06:58:10;3.95;;;1.33;;
5646;SDS011;2845;48.626;9.362;2023-05-07T07:00:44;2.03;;;1.13;;
5646;SDS011;2845;48.626;9.362;2023-05-07T07:03:19;3.55;;;1.20;;
5646;SDS011;2845;48.626;9.362;2023-05-07T07:05:54;2.75;;;1.90;;
5646;SDS011;2845;48.626;9.362;2023-05-07T07:08:28;2.88;;;1.52;;
5646;SDS011;2845;48.626;9.362;2023-05-07T07:11:02;3.08;;;1.70;;
5646;SDS011;2845;48.626;9.362;2023-05-07T07:13:36;3.15;;;1.48;;
5646;SDS011;2845;48.626;9.362;2023-05-07T07:16:12;1.95;;;1.05;;
5646;SDS011;2845;48.626;9.362;2023-05-07T07:18:48;2.10;;;0.85;;
5646;SDS011;2845;48.626;9.362;2023-05-07T07:21:22;3.45;;;1.50;;
5646;SDS011;2845;48.626;9.362;2023-05-07T07:23:57;2.38;;;1.23;;
5646;SDS011;2845;48.626;9.362;2023-05-07T07:26:31;1.48;;;1.00;;
5646;SDS011;2845;48.626;9.362;2023-05-07T07:29:05;2.63;;;1.20;;
5646;SDS011;2845;48.626;9.362;2023-05-07T07:31:39;2.72;;;1.23;;
5646;SDS011;2845;48.626;9.362;2023-05-07T07:34:15;1.90;;;1.30;;
5646;SDS011;2845;48.626;9.362;2023-05-07T07:36:49;3.60;;;1.40;;
5646;SDS011;2845;48.626;9.362;2023-05-07T07:39:23;2.92;;;1.52;;
5646;SDS011;2845;48.626;9.362;2023-05-07T07:41:58;2.38;;;1.30;;
5646;SDS011;2845;48.626;9.362;2023-05-07T07:44:33;2.55;;;1.25;;
5646;SDS011;2845;48.626;9.362;2023-05-07T07:47:07;2.65;;;1.38;;
5646;SDS011;2845;48.626;9.362;2023-05-07T07:49:43;2.47;;;1.40;;
5646;SDS011;2845;48.626;9.362;2023-05-07T07:52:17;2.30;;;1.10;;
5646;SDS011;2845;48.626;9.362;2023-05-07T07:54:52;2.38;;;1.30;;
5646;SDS011;2845;48.626;9.362;2023-05-07T07:57:26;2.47;;;1.27;;
5646;SDS011;2845;48.626;9.362;2023-05-07T08:00:01;2.25;;;1.40;;
5646;SDS011;2845;48.626;9.362;2023-05-07T08:02:36;3.85;;;1.63;;
5646;SDS011;2845;48.626;9.362;2023-05-07T08:05:12;2.92;;;1.40;;
5646;SDS011;2845;48.626;9.362;2023-05-07T08:07:47;2.50;;;1.13;;
5646;SDS011;2845;48.626;9.362;2023-05-07T08:10:24;2.83;;;1.40;;
5646;SDS011;2845;48.626;9.362;2023-05-07T08:12:59;2.67;;;1.20;;
5646;SDS011;2845;48.626;9.362;2023-05-07T08:15:33;1.67;;;1.00;;
5646;SDS011;2845;48.626;9.362;2023-05-07T08:18:07;2.47;;;1.08;;
5646;SDS011;2845;48.626;9.362;2023-05-07T08:20:43;2.58;;;1.13;;
5646;SDS011;2845;48.626;9.362;2023-05-07T08:23:17;2.58;;;1.60;;
5646;SDS011;2845;48.626;9.362;2023-05-07T08:25:51;2.88;;;1.40;;
5646;SDS011;2845;48.626;9.362;2023-05-07T08:28:26;1.77;;;1.15;;
5646;SDS011;2845;48.626;9.362;2023-05-07T08:31:00;2.13;;;1.30;;
5646;SDS011;2845;48.626;9.362;2023-05-07T08:33:34;2.83;;;1.40;;
5646;SDS011;2845;48.626;9.362;2023-05-07T08:36:11;2.45;;;1.42;;
5646;SDS011;2845;48.626;9.362;2023-05-07T08:38:45;3.03;;;1.60;;
5646;SDS011;2845;48.626;9.362;2023-05-07T08:41:19;2.25;;;1.20;;
5646;SDS011;2845;48.626;9.362;2023-05-07T08:43:54;2.83;;;1.40;;
5646;SDS011;2845;48.626;9.362;2023-05-07T08:46:33;4.47;;;1.40;;
5646;SDS011;2845;48.626;9.362;2023-05-07T08:49:08;2.30;;;1.30;;
5646;SDS011;2845;48.626;9.362;2023-05-07T08:51:44;1.80;;;1.13;;
5646;SDS011;2845;48.626;9.362;2023-05-07T08:54:18;1.38;;;0.85;;
5646;SDS011;2845;48.626;9.362;2023-05-07T08:56:55;1.83;;;1.35;;
5646;SDS011;2845;48.626;9.362;2023-05-07T08:59:29;2.17;;;1.17;;
5646;SDS011;2845;48.626;9.362;2023-05-07T09:02:04;3.30;;;1.50;;
5646;SDS011;2845;48.626;9.362;2023-05-07T09:04:41;1.98;;;1.30;;
5646;SDS011;2845;48.626;9.362;2023-05-07T09:07:16;1.85;;;1.30;;
5646;SDS011;2845;48.626;9.362;2023-05-07T09:09:52;2.22;;;1.35;;
5646;SDS011;2845;48.626;9.362;2023-05-07T09:12:27;5.32;;;1.70;;
5646;SDS011;2845;48.626;9.362;2023-05-07T09:15:01;1.92;;;1.40;;
5646;SDS011;2845;48.626;9.362;2023-05-07T09:17:36;2.63;;;1.27;;
5646;SDS011;2845;48.626;9.362;2023-05-07T09:20:10;1.85;;;0.93;;
5646;SDS011;2845;48.626;9.362;2023-05-07T09:22:46;2.13;;;1.30;;
5646;SDS011;2845;48.626;9.362;2023-05-07T09:25:27;2.78;;;1.30;;
5646;SDS011;2845;48.626;9.362;2023-05-07T09:28:02;2.53;;;1.30;;
5646;SDS011;2845;48.626;9.362;2023-05-07T09:30:38;2.28;;;1.08;;
5646;SDS011;2845;48.626;9.362;2023-05-07T09:33:12;1.75;;;1.10;;
5646;SDS011;2845;48.626;9.362;2023-05-07T09:35:47;3.08;;;1.23;;
5646;SDS011;2845;48.626;9.362;2023-05-07T09:38:26;2.03;;;1.13;;
5646;SDS011;2845;48.626;9.362;2023-05-07T09:41:04;3.85;;;1.23;;
5646;SDS011;2845;48.626;9.362;2023-05-07T09:43:40;2.33;;;1.30;;
5646;SDS011;2845;48.626;9.362;2023-05-07T09:46:14;1.50;;;1.00;;
5646;SDS011;2845;48.626;9.362;2023-05-07T09:48:50;2.72;;;1.35;;
5646;SDS011;2845;48.626;9.362;2023-05-07T09:51:31;2.50;;;1.35;;
5646;SDS011;2845;48.626;9.362;2023-05-07T09:54:23;2.75;;;1.05;;
5646;SDS011;2845;48.626;9.362;2023-05-07T09:57:01;1.40;;;1.05;;
5646;SDS011;2845;48.626;9.362;2023-05-07T09:59:36;2.38;;;1.20;;
5646;SDS011;2845;48.626;9.362;2023-05-07T10:02:11;1.83;;;1.08;;
5646;SDS011;2845;48.626;9.362;2023-05-07T10:04:48;2.45;;;1.05;;
5646;SDS011;2845;48.626;9.362;2023-05-07T10:07:22;1.98;;;1.15;;
5646;SDS011;2845;48.626;9.362;2023-05-07T10:10:00;1.88;;;1.15;;
5646;SDS011;2845;48.626;9.362;2023-05-07T10:12:35;2.80;;;1.08;;
5646;SDS011;2845;48.626;9.362;2023-05-07T10:15:11;3.38;;;1.20;;
5646;SDS011;2845;48.626;9.362;2023-05-07T10:17:46;3.35;;;1.13;;
5646;SDS011;2845;48.626;9.362;2023-05-07T10:20:23;2.00;;;1.30;;
5646;SDS011;2845;48.626;9.362;2023-05-07T10:22:59;2.80;;;1.08;;
5646;SDS011;2845;48.626;9.362;2023-05-07T10:25:39;1.60;;;1.15;;
5646;SDS011;2845;48.626;9.362;2023-05-07T10:28:13;2.20;;;1.30;;
5646;SDS011;2845;48.626;9.362;2023-05-07T10:30:53;1.80;;;1.25;;
5646;SDS011;2845;48.626;9.362;2023-05-07T10:33:39;1.88;;;1.20;;
5646;SDS011;2845;48.626;9.362;2023-05-07T10:36:15;2.42;;;1.13;;
5646;SDS011;2845;48.626;9.362;2023-05-07T10:38:50;2.22;;;1.20;;
5646;SDS011;2845;48.626;9.362;2023-05-07T10:41:27;2.78;;;1.58;;
5646;SDS011;2845;48.626;9.362;2023-05-07T10:44:01;4.20;;;1.08;;
5646;SDS011;2845;48.626;9.362;2023-05-07T10:46:36;1.58;;;1.02;;
5646;SDS011;2845;48.626;9.362;2023-05-07T10:49:10;1.60;;;1.00;;
5646;SDS011;2845;48.626;9.362;2023-05-07T10:51:45;2.33;;;1.38;;
5646;SDS011;2845;48.626;9.362;2023-05-07T10:54:46;1.88;;;1.13;;
5646;SDS011;2845;48.626;9.362;2023-05-07T10:57:55;1.75;;;1.20;;
5646;SDS011;2845;48.626;9.362;2023-05-07T11:00:42;2.53;;;0.98;;
5646;SDS011;2845;48.626;9.362;2023-05-07T11:03:19;2.45;;;1.10;;
5646;SDS011;2845;48.626;9.362;2023-05-07T11:06:10;1.63;;;1.05;;
5646;SDS011;2845;48.626;9.362;2023-05-07T11:08:52;1.67;;;0.93;;
5646;SDS011;2845;48.626;9.362;2023-05-07T11:11:46;2.35;;;1.33;;
5646;SDS011;2845;48.626;9.362;2023-05-07T11:14:43;1.88;;;1.23;;
5646;SDS011;2845;48.626;9.362;2023-05-07T11:17:18;1.30;;;1.00;;
5646;SDS011;2845;48.626;9.362;2023-05-07T11:19:53;3.58;;;1.30;;
5646;SDS011;2845;48.626;9.362;2023-05-07T11:22:38;1.73;;;1.20;;
5646;SDS011;2845;48.626;9.362;2023-05-07T11:25:17;1.65;;;1.10;;
5646;SDS011;2845;48.626;9.362;2023-05-07T11:27:52;1.60;;;1.20;;
5646;SDS011;2845;48.626;9.362;2023-05-07T11:30:28;2.67;;;1.25;;
5646;SDS011;2845;48.626;9.362;2023-05-07T11:33:02;1.23;;;1.13;;
5646;SDS011;2845;48.626;9.362;2023-05-07T11:35:37;1.58;;;0.90;;
5646;SDS011;2845;48.626;9.362;2023-05-07T11:38:12;1.42;;;1.00;;
5646;SDS011;2845;48.626;9.362;2023-05-07T11:40:48;4.43;;;1.40;;
5646;SDS011;2845;48.626;9.362;2023-05-07T11:43:28;2.45;;;1.10;;
5646;SDS011;2845;48.626;9.362;2023-05-07T11:46:07;1.70;;;1.10;;
5646;SDS011;2845;48.626;9.362;2023-05-07T11:48:42;2.50;;;1.23;;
5646;SDS011;2845;48.626;9.362;2023-05-07T11:51:20;1.48;;;0.90;;
5646;SDS011;2845;48.626;9.362;2023-05-07T11:54:00;2.13;;;1.00;;
5646;SDS011;2845;48.626;9.362;2023-05-07T11:56:40;2.88;;;1.27;;
5646;SDS011;2845;48.626;9.362;2023-05-07T11:59:17;1.92;;;1.20;;
5646;SDS011;2845;48.626;9.362;2023-05-07T12:01:55;1.92;;;0.95;;
5646;SDS011;2845;48.626;9.362;2023-05-07T12:04:31;1.93;;;1.17;;
5646;SDS011;2845;48.626;9.362;2023-05-07T12:07:10;2.25;;;0.80;;
5646;SDS011;2845;48.626;9.362;2023-05-07T12:09:45;1.60;;;1.00;;
5646;SDS011;2845;48.626;9.362;2023-05-07T12:12:20;2.25;;;1.25;;
5646;SDS011;2845;48.626;9.362;2023-05-07T12:14:54;2.22;;;1.10;;
5646;SDS011;2845;48.626;9.362;2023-05-07T12:17:30;1.70;;;1.00;;
5646;SDS011;2845;48.626;9.362;2023-05-07T12:20:05;2.15;;;1.00;;
5646;SDS011;2845;48.626;9.362;2023-05-07T12:22:42;2.65;;;1.00;;
5646;SDS011;2845;48.626;9.362;2023-05-07T12:25:18;2.70;;;1.10;;
5646;SDS011;2845;48.626;9.362;2023-05-07T12:27:53;2.28;;;1.00;;
5646;SDS011;2845;48.626;9.362;2023-05-07T12:30:27;2.10;;;1.27;;
5646;SDS011;2845;48.626;9.362;2023-05-07T12:33:04;1.42;;;0.90;;
5646;SDS011;2845;48.626;9.362;2023-05-07T12:35:39;1.17;;;0.82;;
5646;SDS011;2845;48.626;9.362;2023-05-07T12:38:15;2.60;;;1.10;;
5646;SDS011;2845;48.626;9.362;2023-05-07T12:40:53;2.03;;;0.88;;
5646;SDS011;2845;48.626;9.362;2023-05-07T12:43:28;1.35;;;0.82;;
5646;SDS011;2845;48.626;9.362;2023-05-07T12:46:04;2.38;;;0.80;;
5646;SDS011;2845;48.626;9.362;2023-05-07T12:48:44;1.33;;;0.90;;
5646;SDS011;2845;48.626;9.362;2023-05-07T12:51:18;1.55;;;0.95;;
5646;SDS011;2845;48.626;9.362;2023-05-07T12:53:55;2.47;;;1.00;;
5646;SDS011;2845;48.626;9.362;2023-05-07T12:56:31;1.60;;;0.98;;
5646;SDS011;2845;48.626;9.362;2023-05-07T12:59:09;2.00;;;1.00;;
5646;SDS011;2845;48.626;9.362;2023-05-07T13:01:43;1.05;;;0.80;;
5646;SDS011;2845;48.626;9.362;2023-05-07T13:04:19;1.40;;;1.00;;
5646;SDS011;2845;48.626;9.362;2023-05-07T13:06:54;2.78;;;0.90;;
5646;SDS011;2845;48.626;9.362;2023-05-07T13:09:30;1.73;;;0.88;;
5646;SDS011;2845;48.626;9.362;2023-05-07T13:12:05;1.70;;;1.10;;
5646;SDS011;2845;48.626;9.362;2023-05-07T13:14:39;2.10;;;1.08;;
5646;SDS011;2845;48.626;9.362;2023-05-07T13:17:13;1.35;;;0.95;;
5646;SDS011;2845;48.626;9.362;2023-05-07T13:19:49;1.45;;;0.80;;
5646;SDS011;2845;48.626;9.362;2023-05-07T13:22:23;3.75;;;1.15;;
5646;SDS011;2845;48.626;9.362;2023-05-07T13:24:57;2.05;;;0.95;;
5646;SDS011;2845;48.626;9.362;2023-05-07T13:27:32;2.30;;;1.17;;
5646;SDS011;2845;48.626;9.362;2023-05-07T13:30:10;3.17;;;0.98;;
5646;SDS011;2845;48.626;9.362;2023-05-07T13:32:44;1.15;;;0.80;;
5646;SDS011;2845;48.626;9.362;2023-05-07T13:35:21;1.80;;;0.80;;
5646;SDS011;2845;48.626;9.362;2023-05-07T13:37:55;1.05;;;0.60;;
5646;SDS011;2845;48.626;9.362;2023-05-07T13:40:30;1.90;;;0.60;;
5646;SDS011;2845;48.626;9.362;2023-05-07T13:43:05;1.30;;;0.60;;
5646;SDS011;2845;48.626;9.362;2023-05-07T13:45:40;1.42;;;0.57;;
5646;SDS011;2845;48.626;9.362;2023-05-07T13:48:14;1.42;;;0.75;;
5646;SDS011;2845;48.626;9.362;2023-05-07T13:50:50;0.85;;;0.52;;
5646;SDS011;2845;48.626;9.362;2023-05-07T13:53:24;1.67;;;0.80;;
5646;SDS011;2845;48.626;9.362;2023-05-07T13:56:00;0.85;;;0.47;;
5646;SDS011;2845;48.626;9.362;2023-05-07T13:58:36;1.45;;;0.80;;
5646;SDS011;2845;48.626;9.362;2023-05-07T14:01:29;2.60;;;0.90;;
5646;SDS011;2845;48.626;9.362;2023-05-07T14:04:04;1.50;;;0.73;;
5646;SDS011;2845;48.626;9.362;2023-05-07T14:06:44;3.17;;;0.85;;
5646;SDS011;2845;48.626;9.362;2023-05-07T14:09:19;1.58;;;0.60;;
5646;SDS011;2845;48.626;9.362;2023-05-07T14:11:53;2.85;;;0.88;;
5646;SDS011;2845;48.626;9.362;2023-05-07T14:14:27;1.27;;;0.57;;
5646;SDS011;2845;48.626;9.362;2023-05-07T14:17:03;1.83;;;0.75;;
5646;SDS011;2845;48.626;9.362;2023-05-07T14:19:37;2.45;;;0.93;;
5646;SDS011;2845;48.626;9.362;2023-05-07T14:22:15;2.35;;;0.98;;
5646;SDS011;2845;48.626;9.362;2023-05-07T14:24:49;1.80;;;0.70;;
5646;SDS011;2845;48.626;9.362;2023-05-07T14:27:43;2.33;;;0.90;;
5646;SDS011;2845;48.626;9.362;2023-05-07T14:30:17;1.75;;;0.90;;
5646;SDS011;2845;48.626;9.362;2023-05-07T14:32:51;1.85;;;0.75;;
5646;SDS011;2845;48.626;9.362;2023-05-07T14:35:25;1.65;;;0.80;;
5646;SDS011;2845;48.626;9.362;2023-05-07T14:38:01;2.13;;;1.05;;
5646;SDS011;2845;48.626;9.362;2023-05-07T14:40:35;1.02;;;0.63;;
5646;SDS011;2845;48.626;9.362;2023-05-07T14:43:09;1.50;;;0.88;;
5646;SDS011;2845;48.626;9.362;2023-05-07T14:45:43;1.33;;;0.82;;
5646;SDS011;2845;48.626;9.362;2023-05-07T14:48:17;2.45;;;0.95;;
5646;SDS011;2845;48.626;9.362;2023-05-07T14:50:52;1.20;;;0.75;;
5646;SDS011;2845;48.626;9.362;2023-05-07T14:53:30;2.45;;;1.25;;
5646;SDS011;2845;48.626;9.362;2023-05-07T14:56:05;2.38;;;1.10;;
5646;SDS011;2845;48.626;9.362;2023-05-07T14:58:39;4.90;;;1.13;;
5646;SDS011;2845;48.626;9.362;2023-05-07T15:01:13;2.13;;;1.13;;
5646;SDS011;2845;48.626;9.362;2023-05-07T15:03:48;1.85;;;1.08;;
5646;SDS011;2845;48.626;9.362;2023-05-07T15:06:25;1.67;;;0.70;;
5646;SDS011;2845;48.626;9.362;2023-05-07T15:09:10;3.45;;;0.90;;
5646;SDS011;2845;48.626;9.362;2023-05-07T15:11:45;1.52;;;0.95;;
5646;SDS011;2845;48.626;9.362;2023-05-07T15:14:20;1.73;;;1.08;;
5646;SDS011;2845;48.626;9.362;2023-05-07T15:16:54;4.40;;;1.45;;
5646;SDS011;2845;48.626;9.362;2023-05-07T15:19:28;1.83;;;0.80;;
5646;SDS011;2845;48.626;9.362;2023-05-07T15:22:04;1.73;;;1.00;;
5646;SDS011;2845;48.626;9.362;2023-05-07T15:24:40;2.15;;;0.93;;
5646;SDS011;2845;48.626;9.362;2023-05-07T15:27:14;2.25;;;0.95;;
5646;SDS011;2845;48.626;9.362;2023-05-07T15:29:50;1.88;;;0.90;;
5646;SDS011;2845;48.626;9.362;2023-05-07T15:32:25;3.58;;;1.20;;
5646;SDS011;2845;48.626;9.362;2023-05-07T15:34:59;1.98;;;1.23;;
5646;SDS011;2845;48.626;9.362;2023-05-07T15:37:36;2.53;;;1.25;;
5646;SDS011;2845;48.626;9.362;2023-05-07T15:40:12;2.95;;;1.27;;
5646;SDS011;2845;48.626;9.362;2023-05-07T15:42:46;3.47;;;1.10;;
5646;SDS011;2845;48.626;9.362;2023-05-07T15:45:21;2.15;;;1.20;;
5646;SDS011;2845;48.626;9.362;2023-05-07T15:47:59;2.10;;;1.05;;
5646;SDS011;2845;48.626;9.362;2023-05-07T15:50:33;1.85;;;1.10;;
5646;SDS011;2845;48.626;9.362;2023-05-07T15:53:08;1.40;;;0.82;;
5646;SDS011;2845;48.626;9.362;2023-05-07T15:55:43;1.30;;;0.77;;
5646;SDS011;2845;48.626;9.362;2023-05-07T15:58:20;2.17;;;1.08;;
5646;SDS011;2845;48.626;9.362;2023-05-07T16:00:55;1.95;;;0.77;;
5646;SDS011;2845;48.626;9.362;2023-05-07T16:03:30;5.40;;;1.17;;
5646;SDS011;2845;48.626;9.362;2023-05-07T16:06:06;3.08;;;1.45;;
5646;SDS011;2845;48.626;9.362;2023-05-07T16:08:42;4.15;;;1.77;;